Latest Coastal Weather Observations for Hobart

IDT60701

Issued at 2:22 pm EDT Thursday 12 December 2019 (issued every 10 minutes, with the page automatically refreshed every 10 minutes)

About coastal observations | Map of coastal stations | Coastal observations for TAS | Marine services | Other Formats
Station Details ID: 094029 Name: HOBART (ELLERSLIE ROAD) Lat: -42.89 Lon: 147.33 Height: 50.5 m
Data from the previous 72 hours. | See also: Recent months at Hobart
Date/Time
EDT
Wind Sea
Height
m
Swell Vis
km
Cloud Weather Temp
°C
Press
hPa
Rain since
9am
mm
Dir  Spd
kts
Gust
kts
Height
m
Period
s
Dir
12/02:07pm SSW 15 25 - - - - - - - 15.0 1011.4 0.2
12/02:00pm SSW 12 19 - - - - - - - 15.2 1011.3 0.2
12/01:30pm W 15 24 - - - - - - - 16.8 1011.3 0.2
12/01:04pm WSW 15 25 - - - - - - - 15.5 1011.4 0.2
12/01:00pm WSW 12 20 - - - - - - - 15.6 1011.4 0.2
12/12:35pm WSW 15 27 - - - - - - - 16.6 1011.3 0.2
12/12:30pm SW 11 24 - - - - - - - 16.4 1011.1 0.2
12/12:00pm SSW 13 19 - - - - - - - 16.0 1011.0 0.0
12/11:33am WSW 15 25 - - - - - - - 15.0 1011.0 0.0
12/11:30am SW 13 22 - - - - - - - 15.9 1011.1 0.0
12/11:18am WSW 15 26 - - - - - - - 15.6 1011.0 0.0
12/11:00am SW 13 21 - - - - - - - 13.8 1011.2 0.0
12/10:30am WSW 17 28 - - - - - - - 15.5 1010.6 0.0
12/10:11am WSW 16 26 - - - - - - - 14.0 1010.6 0.0
12/10:00am SW 12 21 - - - - - - - 12.3 1010.9 0.0
12/09:30am SW 9 17 - - - - - - - 11.8 1010.5 0.0
12/09:00am SW 9 19 - - - - - - - 13.5 1009.8 0.0
12/08:30am NNW 16 23 - - - - - - - 14.3 1008.8 0.0
12/08:00am NW 11 19 - - - - - - - 14.3 1008.8 0.0
12/07:30am NW 14 23 - - - - - - - 13.5 1009.1 0.0
12/07:00am NNW 14 23 - - - - - - - 13.7 1009.1 0.0
12/06:30am WNW 12 18 - - - - - - - 13.9 1009.1 0.0
12/06:14am WNW 11 27 - - - - - - - 14.0 1009.0 0.0
12/06:00am NW 11 23 - - - - - - - 13.9 1008.8 0.0
12/05:30am WNW 9 13 - - - - - - - 13.6 1008.6 0.0
12/05:00am NW 8 11 - - - - - - - 13.5 1008.5 0.0
12/04:30am NW 10 15 - - - - - - - 13.9 1008.5 0.0
12/04:00am NW 10 16 - - - - - - - 14.0 1008.6 0.0
12/03:30am NW 9 13 - - - - - - - 13.9 1009.0 0.0
12/03:00am WNW 9 14 - - - - - - - 14.0 1009.3 0.0
12/02:30am NW 12 18 - - - - - - - 14.3 1009.6 0.0
12/02:00am WNW 10 16 - - - - - - - 14.3 1010.2 0.0
12/01:30am NW 12 17 - - - - - - - 14.5 1010.9 0.0
12/01:17am NW 11 19 - - - - - - - 14.4 1011.3 0.0
12/01:00am NW 5 8 - - - - - - - 13.2 1011.5 0.0
12/12:30am WNW 4 6 - - - - - - - 13.1 1012.0 0.0
12/12:00am NW 5 7 - - - - - - - 13.3 1012.5 0.0
 
Date/Time
EDT
Wind Sea
Height
m
Swell Vis
km
Cloud Weather Temp
°C
Press
hPa
Rain since
9am
mm
Dir  Spd
kts
Gust
kts
Height
m
Period
s
Dir
11/11:30pm SSE 4 6 - - - - - - - 13.1 1012.7 0.0
11/11:00pm CALM 0 2 - - - - - - - 13.1 1012.9 0.0
11/10:30pm SE 3 5 - - - - - - - 13.8 1013.7 0.0
11/10:00pm ENE 6 8 - - - - - - - 14.0 1013.9 0.0
11/09:30pm NE 2 5 - - - - - - - 14.3 1014.1 0.0
11/09:00pm SSW 3 5 - - - - - - - 14.8 1014.1 0.0
11/08:30pm SSW 2 5 - - - - - - - 15.1 1014.0 0.0
11/08:00pm SE 5 8 - - - - - - - 15.4 1013.9 0.0
11/07:30pm SE 7 9 - - - - - - - 16.1 1014.0 0.0
11/07:00pm SE 8 10 - - - - - - - 16.2 1013.8 0.0
11/06:30pm SSE 7 9 - - - - - - - 16.6 1014.0 0.0
11/06:00pm SSE 11 14 - - - - - - - 16.3 1013.7 0.0
11/05:30pm SE 12 15 - - - - - - - 16.2 1013.7 0.0
11/05:00pm SE 12 15 - - - - - - - 16.9 1013.7 0.0
11/04:30pm ESE 12 17 - - - - - - - 17.2 1013.9 0.0
11/04:00pm ESE 10 13 - - - - - - - 18.6 1014.0 0.0
11/03:30pm E 10 13 - - - - - - - 18.1 1014.2 0.0
11/03:00pm SSE 6 11 - - - - - - - 18.5 1014.4 0.0
11/02:30pm S 10 15 - - - - - - - 18.5 1014.5 0.0
11/02:00pm ESE 8 11 - - - - - - - 19.8 1014.4 0.0
11/01:30pm S 9 13 - - - - - - - 20.1 1014.6 0.0
11/01:00pm NNW 9 14 - - - - - - - 21.9 1014.8 0.0
11/12:30pm NNW 12 19 - - - - - - - 20.9 1015.1 0.0
11/12:00pm N 10 17 - - - - - - - 21.8 1015.5 0.0
11/11:30am N 15 23 - - - - - - - 20.1 1015.9 0.0
11/11:00am N 9 14 - - - - - - - 20.0 1016.3 0.0
11/10:30am N 8 12 - - - - - - - 18.9 1016.7 0.0
11/10:00am NNW 8 12 - - - - - - - 17.5 1016.9 0.0
11/09:30am NNW 7 10 - - - - - - - 17.2 1017.1 0.0
11/09:00am NNW 7 11 - - - - - - - 15.9 1017.3 0.0
11/08:30am WNW 3 6 - - - - - - - 14.7 1017.4 0.0
11/08:00am NNW 7 10 - - - - - - - 13.4 1017.4 0.0
11/07:30am NW 5 6 - - - - - - - 12.8 1017.4 0.0
11/07:00am NNW 7 10 - - - - - - - 11.9 1017.4 0.0
11/06:30am NW 4 6 - - - - - - - 11.5 1017.5 0.0
11/06:00am W 5 6 - - - - - - - 10.8 1017.5 0.0
11/05:30am NW 6 9 - - - - - - - 10.7 1017.4 0.0
11/05:00am NW 3 5 - - - - - - - 10.2 1017.3 0.0
11/04:30am W 5 7 - - - - - - - 9.9 1017.3 0.0
11/04:00am WNW 3 5 - - - - - - - 9.9 1017.5 0.0
11/03:30am NW 3 5 - - - - - - - 10.2 1017.7 0.0
11/03:00am W 3 5 - - - - - - - 10.5 1018.0 0.0
11/02:30am W 4 5 - - - - - - - 10.7 1018.2 0.0
11/02:00am WNW 5 6 - - - - - - - 11.0 1018.3 0.0
11/01:30am WNW 5 7 - - - - - - - 11.0 1018.5 0.0
11/01:00am WNW 3 5 - - - - - - - 11.1 1018.5 0.0
11/12:30am WSW 4 5 - - - - - - - 11.4 1018.7 0.0
11/12:00am W 4 6 - - - - - - - 11.8 1019.0 0.0
 
Date/Time
EDT
Wind Sea
Height
m
Swell Vis
km
Cloud Weather Temp
°C
Press
hPa
Rain since
9am
mm
Dir  Spd
kts
Gust
kts
Height
m
Period
s
Dir
10/11:30pm CALM 0 0 - - - - - - - 12.1 1019.1 0.0
10/11:00pm W 3 5 - - - - - - - 12.1 1019.2 0.0
10/10:30pm WSW 7 8 - - - - - - - 12.5 1019.3 0.0
10/10:00pm S 4 6 - - - - - - - 13.3 1019.3 0.0
10/09:30pm SE 5 7 - - - - - - - 13.7 1019.1 0.0
10/09:00pm SE 4 6 - - - - - - - 14.0 1018.6 0.0
10/08:30pm SSE 7 10 - - - - - - - 14.4 1018.4 0.0
10/08:00pm SE 6 9 - - - - - - - 15.1 1018.1 0.0
10/07:30pm SE 7 9 - - - - - - - 15.4 1017.6 0.0
10/07:00pm SE 9 11 - - - - - - - 15.4 1017.3 0.0
10/06:30pm ESE 10 13 - - - - - - - 15.3 1017.0 0.0
10/06:00pm ESE 11 16 - - - - - - - 14.6 1016.9 0.0
10/05:30pm ESE 12 17 - - - - - - - 14.7 1016.8 0.0
10/05:00pm ESE 13 17 - - - - - - - 15.1 1016.8 0.0
10/04:30pm ESE 17 21 - - - - - - - 14.5 1016.8 0.0
10/04:00pm ESE 14 18 - - - - - - - 15.3 1016.8 0.0
10/03:30pm SE 16 19 - - - - - - - 16.1 1016.7 0.0
10/03:00pm E 15 19 - - - - - - - 16.6 1016.5 0.0
10/02:30pm SSE 13 20 - - - - - - - 18.8 1016.0 0.0
10/02:00pm S 11 18 - - - - - - - 19.8 1015.9 0.0
10/01:30pm S 11 17 - - - - - - - 19.4 1016.1 0.0
10/01:00pm SSE 9 19 - - - - - - - 19.2 1016.3 0.0
10/12:30pm SSW 10 17 - - - - - - - 19.3 1016.2 0.0
10/12:00pm S 7 15 - - - - - - - 18.7 1016.2 0.0
10/11:30am S 10 16 - - - - - - - 17.2 1016.3 0.0
10/11:00am SSE 10 14 - - - - - - - 16.4 1016.2 0.0
10/10:30am S 10 15 - - - - - - - 16.2 1016.2 0.0
10/10:00am S 14 22 - - - - - - - 15.8 1015.9 0.0
10/09:30am SSW 15 21 - - - - - - - 14.8 1015.7 0.0
10/09:00am SW 14 21 - - - - - - - 15.9 1015.7 0.0
10/08:30am SW 16 24 - - - - - - - 14.4 1015.4 0.0
10/08:00am SSW 16 23 - - - - - - - 14.3 1014.9 0.0
10/07:30am SSW 11 17 - - - - - - - 13.7 1014.6 0.0
10/07:00am SSW 11 16 - - - - - - - 13.7 1014.1 0.0
10/06:30am SW 9 13 - - - - - - - 13.7 1013.7 0.0
10/06:00am SSW 8 12 - - - - - - - 13.5 1013.4 0.0
10/05:30am SW 5 9 - - - - - - - 13.1 1013.1 0.0
10/05:00am NE 5 6 - - - - - - - 13.3 1012.7 0.0
10/04:30am WNW 4 5 - - - - - - - 12.9 1012.2 0.0
10/04:00am SW 3 6 - - - - - - - 13.1 1012.4 0.0
10/03:30am SSE 3 4 - - - - - - - 13.5 1012.5 0.0
10/03:00am SE 3 4 - - - - - - - 13.9 1012.7 0.0
10/02:30am E 4 6 - - - - - - - 14.1 1012.7 0.0
10/02:00am ESE 6 8 - - - - - - - 14.1 1012.1 0.0
10/01:30am SSW 3 5 - - - - - - - 13.8 1011.8 0.0
10/01:00am NW 2 5 - - - - - - - 14.1 1011.6 0.0
10/12:30am SE 3 5 - - - - - - - 14.3 1011.2 0.0
10/12:00am NE 3 5 - - - - - - - 14.5 1011.1 0.0
 
Date/Time
EDT
Wind Sea
Height
m
Swell Vis
km
Cloud Weather Temp
°C
Press
hPa
Rain since
9am
mm
Dir  Spd
kts
Gust
kts
Height
m
Period
s
Dir
09/11:30pm SW 3 5 - - - - - - - 14.6 1010.4 0.0
09/11:00pm CALM 0 2 - - - - - - - 15.0 1010.0 0.0
09/10:30pm SSW 4 5 - - - - - - - 15.0 1009.8 0.0
09/10:00pm WNW 3 5 - - - - - - - 15.0 1010.1 0.0
09/09:30pm NE 6 9 - - - - - - - 15.1 1009.9 0.0
09/09:00pm E 5 9 - - - - - - - 15.3 1009.2 0.0
09/08:30pm ESE 5 8 - - - - - - - 15.8 1008.8 0.0
09/08:00pm ENE 6 10 - - - - - - - 16.0 1008.5 0.0
09/07:30pm SSW 10 15 - - - - - - - 17.0 1008.1 0.0
09/07:00pm S 9 16 - - - - - - - 17.9 1007.4 0.0
09/06:30pm ESE 8 13 - - - - - - - 19.1 1007.4 0.0
09/06:12pm SE 18 25 - - - - - - - 21.1 1006.6 0.0
09/06:00pm SSW 15 23 - - - - - - - 26.4 1006.0 0.0
09/05:55pm S 12 23 - - - - - - - 27.3 1005.8 0.0
09/05:30pm ESE 4 6 - - - - - - - 29.8 1005.7 0.0
09/05:00pm E 6 8 - - - - - - - 30.2 1005.5 0.0
09/04:30pm SE 6 8 - - - - - - - 28.4 1005.9 0.0
09/04:00pm NE 5 8 - - - - - - - 29.8 1006.0 0.0
09/03:30pm NE 5 8 - - - - - - - 29.0 1006.5 0.0
09/03:00pm NE 6 8 - - - - - - - 28.4 1007.3 0.0
09/02:30pm NE 7 9 - - - - - - - 28.2 1008.5 0.0

Other formats

Comma delimited format used in spreadsheet applications
http://www.bom.gov.au/fwo/IDT60701/IDT60701.94970.axf

JavaScript Object Notation format (JSON) in row-major order
http://www.bom.gov.au/fwo/IDT60701/IDT60701.94970.json

Data quality

Most of these data are generated automatically and are frequently updated. Quality checks on data are not normally performed. It is possible for incorrect values to appear. Refer to information at About Latest Weather Observations and please check the disclaimer before using these data.